Kinde, Michigan
Current Conditions -  °F | °C
As of 4:36 AM on Friday 28 Nov 2014 (Local Time) from KBAX Reporting Station
Overcast Overcast  
Wind Chill:   Ceiling: 3200
Heat Index: 19°   Visibility: 10mi
Dew Point: 10°   Wind: 10mph
Humidity: 68%   Direction: 310°NW
Pressure: 30.31"   Gusts: 17mph
Location:  43.94°N, 83°W
Report Text: KBAX 280936Z AUTO 31009G15KT 10SM OVC032 M07/M12 A3031 RMK AO2 T10701120
Loading
Personal Weather Stations






























Interactive Weather Map New forecast layout! Learn more

10-Day Weather Forecast

Advertisements
Track Severe Weather on mobile